Time;durP1;ratioP1;P1;durP2;ratioP2;P2;SDS_P1;SDS_P2;PMS_P1;PMS_P2;Temp;Humidity;BMP_temperature;BMP_pressure;BME280_temperature;BME280_humidity;BME280_pressure;Samples;Min_cycle;Max_cycle;Signal;HPM_P1;HPM_P2
2024/02/21 00:00:40;;;;;;;3.90;2.10;;;1.70;99.90;;;;;;5116469;28;20155;-58
2024/02/21 00:03:07;;;;;;;3.15;2.67;;;1.70;99.90;;;;;;5113792;28;20406;-59
2024/02/21 00:05:34;;;;;;;4.45;2.67;;;1.70;99.90;;;;;;5115709;28;20112;-60
2024/02/21 00:08:03;;;;;;;2.17;1.77;;;1.80;99.90;;;;;;5115619;28;20035;-60
2024/02/21 00:10:32;;;;;;;6.07;2.70;;;1.80;99.90;;;;;;5112422;28;20059;-61
2024/02/21 00:12:59;;;;;;;4.03;1.88;;;1.80;99.90;;;;;;5114508;28;20039;-59
2024/02/21 00:15:26;;;;;;;1.98;1.60;;;1.80;99.90;;;;;;5115985;28;20071;-60
2024/02/21 00:17:53;;;;;;;3.25;1.83;;;1.80;99.90;;;;;;5114433;28;20035;-59
2024/02/21 00:20:20;;;;;;;2.78;2.15;;;1.80;99.90;;;;;;5113476;28;20127;-60
2024/02/21 00:22:47;;;;;;;3.55;2.65;;;1.80;99.90;;;;;;5116043;28;20110;-59
2024/02/21 00:25:15;;;;;;;2.75;2.42;;;1.80;99.90;;;;;;5115320;28;20047;-59
2024/02/21 00:27:42;;;;;;;3.33;2.92;;;1.80;99.90;;;;;;5114833;28;20398;-58
2024/02/21 00:30:09;;;;;;;5.38;3.00;;;1.80;99.90;;;;;;5115771;28;20043;-58
2024/02/21 00:32:36;;;;;;;4.68;3.80;;;1.80;99.90;;;;;;5115700;28;20043;-59
2024/02/21 00:35:03;;;;;;;5.28;4.10;;;1.80;99.90;;;;;;5114826;28;20050;-58
2024/02/21 00:37:31;;;;;;;4.63;3.78;;;1.80;99.90;;;;;;5114337;28;20035;-59
2024/02/21 00:39:58;;;;;;;6.03;4.32;;;1.80;99.90;;;;;;5115247;28;20057;-60
2024/02/21 00:42:25;;;;;;;5.32;3.42;;;1.80;99.90;;;;;;5110697;28;20120;-61
2024/02/21 00:44:52;;;;;;;4.20;3.10;;;1.80;99.90;;;;;;5112937;28;20052;-61
2024/02/21 00:47:19;;;;;;;4.80;3.42;;;1.90;99.90;;;;;;5114210;28;20043;-58
2024/02/21 00:49:46;;;;;;;7.63;3.13;;;1.90;99.90;;;;;;5115604;28;20035;-59
2024/02/21 00:52:13;;;;;;;4.88;3.30;;;1.90;99.90;;;;;;5113642;28;20071;-58
2024/02/21 00:54:40;;;;;;;3.95;3.05;;;1.90;99.90;;;;;;5113014;28;20047;-58
2024/02/21 00:57:19;;;;;;;3.17;2.70;;;1.90;99.90;;;;;;5110352;28;20039;-60
2024/02/21 00:59:46;;;;;;;3.70;3.13;;;1.90;99.90;;;;;;5112187;28;20046;-58
2024/02/21 01:02:13;;;;;;;3.45;2.65;;;2.00;99.90;;;;;;5109574;28;20067;-59
2024/02/21 01:04:40;;;;;;;3.42;2.63;;;2.00;99.90;;;;;;5112334;28;20050;-60
2024/02/21 01:07:07;;;;;;;3.55;2.50;;;2.00;99.90;;;;;;5110743;28;20036;-59
2024/02/21 01:09:34;;;;;;;3.70;2.67;;;2.00;99.90;;;;;;5105376;28;20043;-61
2024/02/21 01:12:01;;;;;;;5.00;2.90;;;2.00;99.90;;;;;;5103599;28;20039;-60
2024/02/21 01:14:28;;;;;;;3.30;2.97;;;2.10;99.90;;;;;;5104135;28;20100;-59
2024/02/21 01:16:55;;;;;;;2.97;2.72;;;2.10;99.90;;;;;;5106912;28;20055;-59
2024/02/21 01:19:22;;;;;;;4.07;2.85;;;2.10;99.90;;;;;;5108410;28;20046;-59
2024/02/21 01:21:49;;;;;;;3.17;2.40;;;2.20;99.90;;;;;;5109081;28;20040;-60
2024/02/21 01:24:16;;;;;;;10.05;3.15;;;2.20;99.90;;;;;;5111627;28;20088;-59
2024/02/21 01:26:43;;;;;;;4.22;3.00;;;2.20;99.90;;;;;;5110545;28;20039;-59
2024/02/21 01:29:10;;;;;;;6.15;3.03;;;2.20;99.90;;;;;;5111062;28;20426;-58
2024/02/21 01:31:37;;;;;;;4.32;2.67;;;2.20;99.90;;;;;;5112249;28;20050;-59
2024/02/21 01:34:04;;;;;;;4.53;3.03;;;2.20;99.90;;;;;;5108847;28;20043;-61
2024/02/21 01:36:31;;;;;;;4.38;2.65;;;2.20;99.90;;;;;;5109920;28;20136;-60
2024/02/21 01:38:58;;;;;;;6.57;3.22;;;2.30;99.90;;;;;;5110325;28;20092;-59
2024/02/21 01:41:25;;;;;;;6.72;3.42;;;2.30;99.90;;;;;;5111020;28;20041;-63
2024/02/21 01:43:52;;;;;;;10.65;3.85;;;2.30;99.90;;;;;;5111701;28;20060;-58
2024/02/21 01:46:19;;;;;;;9.40;3.78;;;2.30;99.90;;;;;;5111558;28;20122;-60
2024/02/21 01:48:46;;;;;;;7.13;3.97;;;2.30;99.90;;;;;;5111217;28;20044;-60
2024/02/21 01:51:14;;;;;;;6.35;3.28;;;2.30;99.90;;;;;;5106153;28;20048;-58
2024/02/21 01:53:44;;;;;;;6.40;4.30;;;2.40;99.90;;;;;;5110634;28;20353;-58
2024/02/21 01:56:13;;;;;;;4.95;3.03;;;2.40;99.90;;;;;;5110467;28;20047;-58
2024/02/21 01:58:41;;;;;;;9.88;3.38;;;2.40;99.90;;;;;;5111612;28;20089;-59
2024/02/21 02:01:09;;;;;;;4.03;3.38;;;2.40;99.90;;;;;;5109049;28;20602;-59
2024/02/21 02:03:37;;;;;;;9.35;4.43;;;2.40;99.90;;;;;;5110497;28;20375;-59
2024/02/21 02:06:06;;;;;;;8.27;4.03;;;2.40;99.90;;;;;;5111198;28;20046;-59
2024/02/21 02:08:33;;;;;;;5.10;3.73;;;2.50;99.90;;;;;;5103763;28;20097;-60
2024/02/21 02:11:01;;;;;;;7.45;3.75;;;2.50;99.90;;;;;;5110871;28;20047;-62
2024/02/21 02:13:28;;;;;;;4.90;3.17;;;2.50;99.90;;;;;;5107649;28;20123;-59
2024/02/21 02:15:55;;;;;;;8.30;3.38;;;2.50;99.90;;;;;;5110419;28;20050;-59
2024/02/21 02:18:22;;;;;;;6.43;2.60;;;2.60;99.90;;;;;;5109366;28;20067;-60
2024/02/21 02:20:50;;;;;;;7.85;3.22;;;2.60;99.90;;;;;;5110774;28;20047;-60
2024/02/21 02:23:34;;;;;;;8.38;3.33;;;2.60;99.90;;;;;;5108980;28;20071;-59
2024/02/21 02:26:01;;;;;;;10.68;3.65;;;2.60;99.90;;;;;;5108766;28;20051;-62
2024/02/21 02:28:28;;;;;;;5.32;3.05;;;2.60;99.90;;;;;;5107380;28;20036;-62
2024/02/21 02:30:55;;;;;;;7.22;3.05;;;2.60;99.90;;;;;;5106839;28;20042;-59
2024/02/21 02:33:22;;;;;;;8.50;2.85;;;2.60;99.90;;;;;;5110193;28;20047;-59
2024/02/21 02:35:49;;;;;;;9.40;3.10;;;2.70;99.90;;;;;;5110506;28;20052;-60
2024/02/21 02:38:16;;;;;;;12.43;3.33;;;2.70;99.90;;;;;;5110152;28;20054;-60
2024/02/21 02:40:44;;;;;;;6.10;2.50;;;2.70;99.90;;;;;;5111257;28;20580;-62
2024/02/21 02:43:11;;;;;;;8.40;3.78;;;2.70;99.90;;;;;;5106929;28;20057;-57
2024/02/21 02:45:38;;;;;;;3.70;1.98;;;2.70;99.90;;;;;;5104509;28;20123;-60
2024/02/21 02:48:05;;;;;;;6.40;2.35;;;2.70;99.90;;;;;;5107807;28;20583;-59
2024/02/21 02:50:32;;;;;;;7.35;2.45;;;2.80;99.90;;;;;;5104621;28;20040;-58
2024/02/21 02:52:59;;;;;;;9.90;2.55;;;2.80;99.90;;;;;;5107211;28;20040;-58
2024/02/21 02:55:26;;;;;;;5.30;2.67;;;2.70;99.90;;;;;;5109023;28;20036;-59
2024/02/21 02:57:54;;;;;;;6.60;2.53;;;2.80;99.90;;;;;;5103331;28;20038;-59
2024/02/21 03:00:21;;;;;;;6.57;2.25;;;2.80;99.90;;;;;;5103510;28;20047;-60
2024/02/21 03:02:49;;;;;;;8.23;2.70;;;2.80;99.90;;;;;;5109400;28;20467;-58
2024/02/21 03:05:19;;;;;;;11.27;2.78;;;2.80;99.90;;;;;;5085181;28;20048;-59
2024/02/21 03:07:46;;;;;;;4.77;2.37;;;2.80;99.90;;;;;;5110048;28;20104;-59
2024/02/21 03:10:16;;;;;;;5.43;2.13;;;2.80;99.90;;;;;;5110020;28;20290;-60
2024/02/21 03:12:44;;;;;;;5.35;2.67;;;2.80;99.90;;;;;;5106683;28;20049;-59
2024/02/21 03:15:12;;;;;;;4.03;2.40;;;2.90;99.90;;;;;;5107852;28;20051;-58
2024/02/21 03:17:40;;;;;;;6.35;2.45;;;2.80;99.90;;;;;;5105213;28;20080;-60
2024/02/21 03:20:10;;;;;;;7.32;2.72;;;2.80;99.90;;;;;;5109824;28;20116;-64
2024/02/21 03:22:39;;;;;;;10.43;2.65;;;2.90;99.90;;;;;;5106231;28;20043;-60
2024/02/21 03:25:08;;;;;;;7.25;2.92;;;2.90;99.90;;;;;;5110002;28;20050;-59
2024/02/21 03:27:35;;;;;;;7.85;3.08;;;2.90;99.90;;;;;;5107697;28;20032;-59
2024/02/21 03:30:02;;;;;;;11.85;3.35;;;2.90;99.90;;;;;;5109037;28;20047;-58
2024/02/21 03:32:29;;;;;;;11.43;2.95;;;2.90;99.90;;;;;;5108546;28;20507;-61
2024/02/21 03:34:56;;;;;;;8.75;3.45;;;3.00;99.90;;;;;;5109785;28;20040;-58
2024/02/21 03:37:24;;;;;;;8.30;2.35;;;3.00;99.90;;;;;;5110164;28;20370;-61
2024/02/21 03:39:51;;;;;;;9.73;2.72;;;3.00;99.90;;;;;;5109597;28;20061;-58
2024/02/21 03:42:18;;;;;;;7.38;2.33;;;3.00;99.90;;;;;;5109563;28;20039;-57
2024/02/21 03:44:45;;;;;;;10.73;3.22;;;3.00;99.90;;;;;;5104835;28;20122;-61
2024/02/21 03:47:12;;;;;;;14.50;3.40;;;3.10;99.90;;;;;;5106761;28;20046;-59
2024/02/21 03:49:39;;;;;;;13.13;3.13;;;3.10;99.90;;;;;;5108287;28;20093;-58
2024/02/21 03:52:07;;;;;;;12.55;3.05;;;3.10;99.90;;;;;;5104029;28;20074;-59
2024/02/21 03:54:34;;;;;;;14.30;3.90;;;3.10;99.90;;;;;;5108673;28;20472;-59
2024/02/21 03:57:02;;;;;;;17.85;3.90;;;3.20;99.90;;;;;;5107934;28;20047;-60
2024/02/21 03:59:29;;;;;;;16.42;3.20;;;3.20;99.90;;;;;;5108984;28;20079;-58
2024/02/21 04:01:56;;;;;;;19.58;4.43;;;3.20;99.90;;;;;;5109872;28;20047;-60
2024/02/21 04:04:23;;;;;;;13.45;3.92;;;3.30;99.90;;;;;;5108574;28;20046;-61
2024/02/21 04:06:51;;;;;;;19.38;4.15;;;3.30;99.90;;;;;;5108940;28;20043;-63
2024/02/21 04:09:18;;;;;;;10.70;4.63;;;3.40;99.90;;;;;;5109904;28;20078;-58
2024/02/21 04:11:45;;;;;;;18.38;4.80;;;3.40;99.90;;;;;;5109246;28;20038;-59
2024/02/21 04:14:12;;;;;;;19.15;5.40;;;3.40;99.90;;;;;;5106322;28;20410;-59
2024/02/21 04:16:39;;;;;;;16.38;5.75;;;3.40;99.90;;;;;;5109424;28;20478;-58
2024/02/21 04:19:07;;;;;;;11.38;4.15;;;3.50;99.90;;;;;;5106953;28;20055;-59
2024/02/21 04:21:35;;;;;;;13.88;5.85;;;3.50;99.90;;;;;;5106385;28;20066;-61
2024/02/21 04:24:05;;;;;;;16.65;4.72;;;3.50;99.90;;;;;;5107272;28;20408;-60
2024/02/21 04:26:33;;;;;;;18.45;5.65;;;3.50;99.90;;;;;;5105672;28;20510;-59
2024/02/21 04:29:00;;;;;;;18.13;6.15;;;3.50;99.90;;;;;;5106398;28;20349;-60
2024/02/21 04:31:27;;;;;;;20.60;5.30;;;3.50;99.90;;;;;;5106540;28;20044;-59
2024/02/21 04:33:55;;;;;;;18.05;4.70;;;3.50;99.90;;;;;;5109462;28;20129;-60
2024/02/21 04:36:22;;;;;;;15.93;5.00;;;3.60;99.90;;;;;;5108156;28;20062;-59
2024/02/21 04:38:50;;;;;;;15.30;4.88;;;3.60;99.90;;;;;;5109920;28;20035;-59
2024/02/21 04:41:17;;;;;;;15.00;5.22;;;3.60;99.90;;;;;;5111601;28;20646;-61
2024/02/21 04:43:46;;;;;;;12.57;5.88;;;3.60;99.90;;;;;;5108381;28;20044;-63
2024/02/21 04:46:13;;;;;;;11.55;5.32;;;3.60;99.90;;;;;;5111057;28;20458;-58
2024/02/21 04:48:40;;;;;;;14.95;7.07;;;3.70;99.90;;;;;;5108311;28;20076;-60
2024/02/21 04:51:07;;;;;;;12.05;5.60;;;3.70;99.90;;;;;;5108788;28;20047;-60
2024/02/21 04:53:34;;;;;;;12.95;5.68;;;3.70;99.90;;;;;;5105302;28;20132;-59
2024/02/21 04:56:01;;;;;;;12.52;4.45;;;3.70;99.90;;;;;;5107298;28;20063;-62
2024/02/21 04:58:28;;;;;;;12.73;5.55;;;3.80;99.90;;;;;;5112718;28;20047;-59
2024/02/21 05:00:55;;;;;;;17.67;7.43;;;3.80;99.90;;;;;;5111397;28;20043;-60
2024/02/21 05:03:22;;;;;;;18.17;5.72;;;3.80;99.90;;;;;;5106677;28;20082;-62
2024/02/21 05:05:49;;;;;;;16.55;5.72;;;3.80;99.90;;;;;;5107630;28;20475;-60
2024/02/21 05:08:16;;;;;;;13.07;6.30;;;3.80;99.90;;;;;;5110455;28;20042;-61
2024/02/21 05:10:43;;;;;;;20.17;8.13;;;3.80;99.90;;;;;;5111570;28;20047;-59
2024/02/21 05:13:10;;;;;;;14.20;6.50;;;3.80;99.90;;;;;;5111788;28;20137;-59
2024/02/21 05:15:37;;;;;;;15.48;6.20;;;3.80;99.90;;;;;;5106077;28;20063;-60
2024/02/21 05:18:04;;;;;;;17.00;7.18;;;3.80;99.90;;;;;;5111895;28;20040;-58
2024/02/21 05:20:31;;;;;;;16.13;6.05;;;3.90;99.90;;;;;;5106408;28;20039;-60
2024/02/21 05:22:58;;;;;;;19.58;7.38;;;3.90;99.90;;;;;;5111128;28;20121;-59
2024/02/21 05:25:26;;;;;;;17.17;5.82;;;3.90;99.90;;;;;;5110163;28;20390;-60
2024/02/21 05:27:53;;;;;;;18.98;8.02;;;3.90;99.90;;;;;;5110927;28;20390;-61
2024/02/21 05:30:20;;;;;;;18.25;8.68;;;3.90;99.90;;;;;;5106766;28;20370;-59
2024/02/21 05:32:47;;;;;;;17.92;7.85;;;3.90;99.90;;;;;;5109709;28;20049;-61
2024/02/21 05:35:14;;;;;;;23.02;8.20;;;3.90;99.90;;;;;;5106544;28;20052;-61
2024/02/21 05:37:41;;;;;;;20.00;9.82;;;4.00;99.90;;;;;;5110254;28;20071;-59
2024/02/21 05:40:12;;;;;;;30.90;9.63;;;4.00;99.90;;;;;;5106377;28;20047;-61
2024/02/21 05:42:39;;;;;;;21.67;8.25;;;4.00;99.90;;;;;;5107288;28;20048;-58
2024/02/21 05:45:06;;;;;;;29.75;8.23;;;4.00;99.90;;;;;;5108863;28;20048;-60
2024/02/21 05:47:33;;;;;;;22.70;9.02;;;4.00;99.90;;;;;;5108059;28;20546;-59
2024/02/21 05:50:00;;;;;;;25.42;8.75;;;4.00;99.90;;;;;;5110962;28;20058;-58
2024/02/21 05:52:27;;;;;;;22.95;8.52;;;4.00;99.90;;;;;;5110490;28;20129;-59
2024/02/21 05:54:54;;;;;;;37.92;11.13;;;4.00;99.90;;;;;;5110178;28;20130;-61
2024/02/21 05:57:21;;;;;;;24.88;8.95;;;4.00;99.90;;;;;;5093610;28;20457;-59
2024/02/21 05:59:48;;;;;;;24.42;9.75;;;4.00;99.90;;;;;;5109567;28;20047;-58
2024/02/21 06:02:15;;;;;;;22.50;10.52;;;4.00;99.90;;;;;;5104882;28;20498;-58
2024/02/21 06:04:42;;;;;;;17.17;7.40;;;4.00;99.90;;;;;;5107639;28;20074;-59
2024/02/21 06:07:09;;;;;;;20.95;8.35;;;4.00;99.90;;;;;;5111008;28;20067;-61
2024/02/21 06:09:37;;;;;;;14.90;7.20;;;4.00;99.90;;;;;;5106392;28;20039;-58
2024/02/21 06:12:04;;;;;;;16.45;9.95;;;3.90;99.90;;;;;;5109090;28;20036;-61
2024/02/21 06:14:31;;;;;;;17.45;7.78;;;3.90;99.90;;;;;;5106043;28;20450;-59
2024/02/21 06:16:57;;;;;;;14.27;7.13;;;3.90;99.90;;;;;;5106961;28;20108;-60
2024/02/21 06:19:25;;;;;;;13.25;6.68;;;3.90;99.90;;;;;;5106896;28;20051;-59
2024/02/21 06:21:51;;;;;;;10.73;6.32;;;3.80;99.90;;;;;;5108259;28;20067;-61
2024/02/21 06:24:18;;;;;;;11.98;7.70;;;3.80;99.90;;;;;;5106861;28;20403;-62
2024/02/21 06:26:45;;;;;;;14.13;6.35;;;3.90;99.90;;;;;;5104077;28;20085;-60
2024/02/21 06:29:13;;;;;;;17.00;5.38;;;3.80;99.90;;;;;;5090414;28;20047;-63
2024/02/21 06:31:40;;;;;;;16.08;6.55;;;3.80;99.90;;;;;;5107416;28;20172;-59
2024/02/21 06:34:07;;;;;;;12.85;5.97;;;3.80;99.90;;;;;;5106784;28;20039;-58
2024/02/21 06:36:35;;;;;;;10.80;6.05;;;3.90;99.90;;;;;;5104829;28;20083;-60
2024/02/21 06:39:05;;;;;;;10.57;5.70;;;3.90;99.90;;;;;;5108288;28;20047;-59
2024/02/21 06:41:34;;;;;;;7.85;5.18;;;3.90;99.90;;;;;;5109491;28;20563;-60
2024/02/21 06:44:02;;;;;;;10.82;4.78;;;3.90;99.90;;;;;;5106790;28;20079;-60
2024/02/21 06:46:30;;;;;;;10.75;6.55;;;3.90;99.90;;;;;;5110912;28;20466;-62
2024/02/21 06:48:58;;;;;;;13.77;5.75;;;3.90;99.90;;;;;;5100430;28;20055;-61
2024/02/21 06:51:25;;;;;;;13.02;7.03;;;3.80;99.90;;;;;;5108485;28;20071;-62
2024/02/21 06:53:53;;;;;;;9.20;5.55;;;3.90;99.90;;;;;;5108313;28;20051;-61
2024/02/21 06:56:20;;;;;;;12.00;6.55;;;3.90;99.90;;;;;;5111089;28;20051;-60
2024/02/21 06:58:47;;;;;;;11.65;6.45;;;3.90;99.90;;;;;;5110147;28;20039;-59
2024/02/21 07:01:14;;;;;;;12.50;6.72;;;3.90;99.90;;;;;;5108909;28;20482;-60
2024/02/21 07:03:41;;;;;;;12.90;8.15;;;3.90;99.90;;;;;;5107749;28;20078;-60
2024/02/21 07:06:08;;;;;;;14.38;7.50;;;4.00;99.90;;;;;;5106518;28;20052;-61
2024/02/21 07:08:35;;;;;;;17.88;7.47;;;4.00;99.90;;;;;;5109077;28;20070;-60
2024/02/21 07:11:02;;;;;;;17.80;7.15;;;4.00;99.90;;;;;;5109437;28;20097;-59
2024/02/21 07:13:29;;;;;;;14.45;8.00;;;4.00;99.90;;;;;;5108872;28;20142;-62
2024/02/21 07:15:56;;;;;;;22.02;8.70;;;4.00;99.90;;;;;;5108614;28;20048;-63
2024/02/21 07:18:25;;;;;;;26.23;10.50;;;4.00;99.90;;;;;;5107759;28;20075;-60
2024/02/21 07:20:52;;;;;;;28.80;9.32;;;4.10;99.90;;;;;;5108830;28;20495;-61
2024/02/21 07:23:19;;;;;;;31.75;9.90;;;4.10;99.90;;;;;;5108870;28;20509;-61
2024/02/21 07:25:46;;;;;;;22.73;9.90;;;4.10;99.90;;;;;;5110186;28;20035;-62
2024/02/21 07:28:14;;;;;;;30.83;13.85;;;4.00;99.90;;;;;;5109234;28;20044;-59
2024/02/21 07:30:41;;;;;;;30.73;12.15;;;4.10;99.90;;;;;;5108857;28;20122;-60
2024/02/21 07:33:08;;;;;;;32.05;14.40;;;4.10;99.90;;;;;;5105519;28;20047;-61
2024/02/21 07:35:37;;;;;;;25.02;12.35;;;4.10;99.90;;;;;;5109103;28;20058;-59
2024/02/21 07:38:05;;;;;;;26.23;13.38;;;4.10;99.90;;;;;;5107449;28;20050;-59
2024/02/21 07:40:32;;;;;;;48.45;16.60;;;4.10;99.90;;;;;;5109016;28;20382;-59
2024/02/21 07:42:59;;;;;;;37.28;15.95;;;4.10;99.90;;;;;;5108424;28;20096;-62
2024/02/21 07:45:26;;;;;;;27.00;16.33;;;4.20;99.90;;;;;;5103048;28;20384;-61
2024/02/21 07:47:53;;;;;;;39.42;14.38;;;4.20;99.90;;;;;;5109785;28;20043;-60
2024/02/21 07:50:20;;;;;;;32.63;14.75;;;4.20;99.90;;;;;;5108283;28;20068;-64
2024/02/21 07:52:47;;;;;;;26.08;14.00;;;4.20;99.90;;;;;;5108266;28;20042;-59
2024/02/21 07:55:14;;;;;;;26.25;14.00;;;4.20;99.90;;;;;;5108255;28;20050;-60
2024/02/21 07:57:41;;;;;;;22.70;12.00;;;4.20;99.90;;;;;;5109172;28;20118;-60
2024/02/21 08:00:10;;;;;;;27.15;13.90;;;4.20;99.90;;;;;;5105992;28;20040;-59
2024/02/21 08:02:39;;;;;;;26.77;14.45;;;4.30;99.90;;;;;;5107561;28;20414;-61
2024/02/21 08:05:06;;;;;;;21.77;13.18;;;4.30;99.90;;;;;;5109611;28;20059;-58
2024/02/21 08:07:33;;;;;;;24.48;13.60;;;4.30;99.90;;;;;;5112180;28;20055;-61
2024/02/21 08:10:00;;;;;;;26.38;12.90;;;4.30;99.90;;;;;;5112428;28;20043;-59
2024/02/21 08:12:27;;;;;;;24.80;12.65;;;4.30;99.90;;;;;;5113110;28;20040;-61
2024/02/21 08:14:54;;;;;;;22.00;12.48;;;4.30;99.90;;;;;;5110886;28;20444;-61
2024/02/21 08:17:21;;;;;;;26.63;13.07;;;4.30;99.90;;;;;;5113259;28;20100;-60
2024/02/21 08:19:49;;;;;;;27.75;14.38;;;4.40;99.90;;;;;;5113211;28;20050;-59
2024/02/21 08:22:16;;;;;;;26.98;13.60;;;4.40;99.90;;;;;;5112854;28;20036;-61
2024/02/21 08:24:43;;;;;;;24.75;12.90;;;4.40;99.90;;;;;;5110544;28;20046;-60
2024/02/21 08:27:10;;;;;;;31.23;14.88;;;4.40;99.90;;;;;;5112605;28;20044;-60
2024/02/21 08:29:37;;;;;;;31.95;13.82;;;4.40;99.90;;;;;;5094621;28;20115;-62
2024/02/21 08:32:04;;;;;;;31.70;16.17;;;4.40;99.90;;;;;;5112254;28;20051;-59
2024/02/21 08:34:33;;;;;;;32.25;14.20;;;4.40;99.90;;;;;;5108951;28;20121;-61
2024/02/21 08:37:01;;;;;;;32.17;15.20;;;4.50;99.90;;;;;;5111929;28;20271;-59
2024/02/21 08:39:30;;;;;;;30.33;15.60;;;4.50;99.90;;;;;;5110253;28;20296;-59
2024/02/21 08:41:57;;;;;;;34.03;17.13;;;4.50;99.90;;;;;;5110125;28;20097;-64
2024/02/21 08:44:25;;;;;;;29.67;15.55;;;4.50;99.90;;;;;;5111739;28;20044;-60
2024/02/21 08:46:53;;;;;;;30.90;14.10;;;4.50;99.90;;;;;;5113386;28;20055;-61
2024/02/21 08:49:20;;;;;;;27.92;14.93;;;4.60;99.90;;;;;;5109899;28;20040;-63
2024/02/21 08:51:47;;;;;;;24.25;13.98;;;4.50;99.90;;;;;;5110317;28;20036;-59
2024/02/21 08:54:15;;;;;;;26.08;15.70;;;4.50;99.90;;;;;;5111806;28;20066;-60
2024/02/21 08:56:42;;;;;;;26.23;14.00;;;4.50;99.90;;;;;;5091695;28;20051;-62
2024/02/21 08:59:09;;;;;;;25.60;14.05;;;4.50;99.90;;;;;;5112348;28;20032;-60
2024/02/21 09:01:36;;;;;;;27.15;13.57;;;4.50;99.90;;;;;;5112300;28;20053;-59
2024/02/21 09:04:05;;;;;;;31.45;14.55;;;4.50;99.90;;;;;;5112238;28;20065;-61
2024/02/21 09:06:33;;;;;;;34.80;15.07;;;4.60;99.90;;;;;;5108993;28;20047;-63
2024/02/21 09:09:00;;;;;;;32.65;15.73;;;4.60;99.90;;;;;;5112396;28;20039;-59
2024/02/21 09:11:28;;;;;;;32.72;17.13;;;4.60;99.90;;;;;;5111186;28;20039;-59
2024/02/21 09:13:55;;;;;;;39.55;17.08;;;4.60;99.90;;;;;;5112558;28;20130;-63
2024/02/21 09:16:23;;;;;;;33.90;16.85;;;4.60;99.90;;;;;;5111639;28;20050;-60
2024/02/21 09:18:52;;;;;;;45.00;21.33;;;4.60;99.90;;;;;;5111276;28;20040;-59
2024/02/21 09:21:19;;;;;;;38.72;17.25;;;4.60;99.90;;;;;;5108747;28;20073;-59
2024/02/21 09:23:46;;;;;;;37.22;17.75;;;4.60;99.90;;;;;;5110489;28;20051;-58
2024/02/21 09:26:16;;;;;;;46.42;19.15;;;4.60;99.90;;;;;;5110255;28;20043;-63
2024/02/21 09:28:46;;;;;;;46.38;19.88;;;4.60;99.90;;;;;;5109275;28;20448;-62
2024/02/21 09:31:13;;;;;;;46.42;20.35;;;4.60;99.90;;;;;;5111638;28;20043;-60
2024/02/21 09:33:41;;;;;;;48.13;20.90;;;4.60;99.90;;;;;;5108834;28;20100;-60
2024/02/21 09:36:08;;;;;;;36.13;17.55;;;4.60;99.90;;;;;;5111138;28;20566;-60
2024/02/21 09:38:35;;;;;;;42.40;21.48;;;4.70;99.90;;;;;;5111572;28;20093;-62
2024/02/21 09:41:18;;;;;;;42.22;19.00;;;4.70;99.90;;;;;;5110373;28;20047;-60
2024/02/21 09:43:53;;;;;;;41.22;20.05;;;4.70;99.90;;;;;;5109729;28;20040;-61
2024/02/21 09:46:32;;;;;;;56.05;19.73;;;4.70;99.90;;;;;;5110443;28;20080;-61
2024/02/21 09:49:04;;;;;;;45.38;20.88;;;4.70;99.90;;;;;;5110147;28;20039;-60
2024/02/21 09:51:34;;;;;;;37.28;20.40;;;4.70;99.90;;;;;;5111363;28;20386;-60
2024/02/21 09:54:03;;;;;;;45.05;19.05;;;4.70;99.90;;;;;;5111263;28;20073;-59
2024/02/21 09:56:44;;;;;;;36.97;18.13;;;4.70;99.90;;;;;;5110680;28;20500;-59
2024/02/21 09:59:11;;;;;;;45.95;19.30;;;4.70;99.90;;;;;;5109414;28;20046;-59
2024/02/21 10:01:38;;;;;;;42.42;19.73;;;4.70;99.90;;;;;;5107802;28;20071;-61
2024/02/21 10:04:06;;;;;;;32.65;17.80;;;4.70;99.90;;;;;;5109144;28;20046;-60
2024/02/21 10:06:33;;;;;;;45.00;19.70;;;4.70;99.90;;;;;;5103859;28;20047;-63
2024/02/21 10:09:00;;;;;;;31.88;18.00;;;4.70;99.90;;;;;;5104790;28;20146;-62
2024/02/21 10:11:27;;;;;;;37.70;18.48;;;4.80;99.90;;;;;;5110542;28;20080;-60
2024/02/21 10:14:07;;;;;;;37.90;18.77;;;4.70;99.90;;;;;;5110890;28;20039;-60
2024/02/21 10:16:37;;;;;;;;;;;4.70;99.90;;;;;;5108517;28;20048;-63
2024/02/21 10:19:04;;;;;;;36.50;19.10;;;4.70;99.90;;;;;;5107520;28;20366;-60
2024/02/21 10:21:31;;;;;;;34.72;17.27;;;4.70;99.90;;;;;;5109732;28;20124;-61
2024/02/21 10:23:58;;;;;;;36.65;17.15;;;4.70;99.90;;;;;;5107268;28;20074;-64
2024/02/21 10:26:25;;;;;;;35.88;18.05;;;4.70;99.90;;;;;;5110102;28;20573;-60
2024/02/21 10:28:54;;;;;;;31.10;17.10;;;4.70;99.90;;;;;;5109341;28;20044;-59
2024/02/21 10:31:26;;;;;;;22.30;13.77;;;4.70;99.90;;;;;;5110511;28;20130;-61
2024/02/21 10:34:17;;;;;;;24.23;14.82;;;4.70;99.90;;;;;;5091359;28;20047;-59
2024/02/21 10:36:44;;;;;;;24.10;12.45;;;4.70;99.90;;;;;;5109629;28;20501;-66
2024/02/21 10:39:11;;;;;;;17.17;11.25;;;4.70;99.90;;;;;;5104436;28;20094;-59
2024/02/21 10:41:38;;;;;;;22.02;11.55;;;4.70;99.90;;;;;;5106108;28;20044;-66
2024/02/21 10:44:08;;;;;;;19.45;11.27;;;4.70;99.90;;;;;;5087427;28;20036;-65
2024/02/21 10:46:37;;;;;;;22.20;11.10;;;4.80;99.90;;;;;;5110039;28;20105;-62
2024/02/21 10:49:25;;;;;;;19.80;12.05;;;4.80;99.90;;;;;;5109069;28;20108;-60
2024/02/21 10:51:58;;;;;;;15.55;10.50;;;4.70;99.90;;;;;;5104589;28;20069;-59
2024/02/21 10:54:40;;;;;;;18.08;10.27;;;4.80;99.90;;;;;;5107854;28;20039;-61
2024/02/21 10:57:10;;;;;;;20.75;11.50;;;4.80;99.90;;;;;;5102776;28;20047;-62
2024/02/21 10:59:39;;;;;;;19.75;11.95;;;4.70;99.90;;;;;;5106420;28;20052;-59
2024/02/21 11:02:06;;;;;;;18.50;9.88;;;4.70;99.90;;;;;;5107216;28;20044;-61
2024/02/21 11:04:36;;;;;;;12.70;9.65;;;4.80;99.90;;;;;;5105619;28;20059;-61
2024/02/21 11:07:05;;;;;;;15.30;9.83;;;4.70;99.90;;;;;;5106164;28;20504;-61
2024/02/21 11:09:37;;;;;;;18.92;9.73;;;4.70;99.90;;;;;;5104151;28;20326;-62
2024/02/21 11:12:06;;;;;;;16.55;10.13;;;4.70;99.90;;;;;;5108858;28;20383;-63
2024/02/21 11:14:39;;;;;;;15.80;9.95;;;4.60;99.90;;;;;;5105949;28;20058;-60
2024/02/21 11:17:21;;;;;;;15.65;9.13;;;4.60;99.90;;;;;;5107791;28;20051;-64
2024/02/21 11:19:48;;;;;;;14.40;9.63;;;4.70;99.90;;;;;;5105107;28;20034;-60
2024/02/21 11:22:17;;;;;;;14.40;8.13;;;4.70;99.90;;;;;;5105655;28;20044;-59
2024/02/21 11:24:45;;;;;;;14.68;8.38;;;4.70;99.90;;;;;;5109530;28;20035;-59
2024/02/21 11:27:19;;;;;;;12.80;8.63;;;4.70;99.90;;;;;;5088814;28;20460;-61
2024/02/21 11:30:05;;;;;;;12.32;8.32;;;4.70;99.90;;;;;;5109086;28;20040;-59
2024/02/21 11:32:32;;;;;;;15.48;8.70;;;4.70;99.90;;;;;;5106806;28;20154;-66
2024/02/21 11:35:04;;;;;;;15.50;8.98;;;4.60;99.90;;;;;;5103577;28;20040;-61
2024/02/21 11:37:38;;;;;;;14.88;8.15;;;4.60;99.90;;;;;;5108050;28;20522;-61
2024/02/21 11:40:09;;;;;;;14.48;7.75;;;4.60;99.90;;;;;;5108229;28;20071;-60
2024/02/21 11:42:38;;;;;;;14.48;8.77;;;4.60;99.90;;;;;;5108077;28;20043;-59
2024/02/21 11:45:08;;;;;;;11.38;8.07;;;4.70;99.90;;;;;;5106189;28;20051;-59
2024/02/21 11:47:38;;;;;;;15.75;8.55;;;4.70;99.90;;;;;;5106344;28;20048;-62
2024/02/21 11:50:09;;;;;;;;;;;4.80;99.90;;;;;;5108377;28;20039;-60
2024/02/21 11:52:36;;;;;;;11.05;7.63;;;4.80;99.90;;;;;;5109787;28;19931;-65
2024/02/21 11:55:04;;;;;;;12.88;10.23;;;4.80;99.90;;;;;;5104563;28;20097;-59
2024/02/21 11:57:32;;;;;;;16.58;9.00;;;4.80;99.90;;;;;;5109622;28;20121;-61
2024/02/21 11:59:59;;;;;;;11.52;8.65;;;4.80;99.90;;;;;;5106230;28;20039;-60
2024/02/21 12:02:31;;;;;;;13.55;8.65;;;4.90;99.90;;;;;;5108719;28;20048;-62
2024/02/21 12:04:57;;;;;;;13.05;8.25;;;4.90;99.90;;;;;;5104520;28;20042;-65
2024/02/21 12:07:25;;;;;;;11.00;7.35;;;4.90;99.90;;;;;;5106972;28;20043;-61
2024/02/21 12:09:52;;;;;;;11.43;8.43;;;4.90;99.90;;;;;;5097298;28;20456;-60
2024/02/21 12:12:22;;;;;;;12.40;9.52;;;5.00;99.90;;;;;;5099838;28;20078;-59
2024/02/21 12:14:56;;;;;;;10.48;7.20;;;5.00;99.90;;;;;;5105094;28;20105;-59
2024/02/21 12:17:23;;;;;;;10.77;7.82;;;5.00;99.90;;;;;;5106283;28;20047;-60
2024/02/21 12:19:50;;;;;;;9.23;7.95;;;5.00;99.90;;;;;;5105837;28;20141;-59
2024/02/21 12:22:21;;;;;;;11.82;7.57;;;5.10;99.90;;;;;;5108713;28;20122;-60
2024/02/21 12:24:48;;;;;;;9.35;7.95;;;5.10;99.90;;;;;;5106792;28;20036;-59
2024/02/21 12:27:15;;;;;;;10.70;8.40;;;5.10;99.90;;;;;;5108793;28;20135;-61
2024/02/21 12:29:42;;;;;;;11.20;8.95;;;5.20;99.90;;;;;;5107784;28;20132;-60
2024/02/21 12:32:10;;;;;;;12.52;9.15;;;5.30;99.90;;;;;;5108995;28;20047;-61
2024/02/21 12:34:37;;;;;;;9.63;8.30;;;5.30;99.90;;;;;;5109274;28;20127;-60
2024/02/21 12:37:19;;;;;;;11.55;9.10;;;5.40;99.90;;;;;;5107171;28;20157;-59
2024/02/21 12:39:47;;;;;;;12.52;8.88;;;5.40;99.90;;;;;;5107321;28;20036;-61
2024/02/21 12:42:15;;;;;;;12.23;9.48;;;5.50;99.90;;;;;;5080866;28;20456;-64
2024/02/21 12:44:42;;;;;;;12.98;9.52;;;5.50;99.90;;;;;;5098598;28;20044;-62
2024/02/21 12:47:10;;;;;;;11.40;8.27;;;5.50;99.90;;;;;;5104036;28;20039;-62
2024/02/21 12:49:37;;;;;;;12.20;9.30;;;5.50;99.90;;;;;;5107143;28;20128;-60
2024/02/21 12:52:10;;;;;;;12.15;10.18;;;5.50;99.90;;;;;;5108837;28;20047;-63